Forside
METAR-TAF:

METAR-TAF

Lufthavne :

Waupaca Municipal Airport

Waupaca, Wisconsin, USA

Breddekreds: 44-20-01N, længdekreds: 089-00-55W, højde: 252 m

Aktuelle vejr

Denne rapport blev lavet for 21 minutter siden, kl. 03:35 UTC
Vind 11 kt fra øst
Temperatur -2°C
Fugtighed 93%
Tryk 1023 hPa
Sigt: 2.0 km
Overskyet i en højde af 500 ft
let sne

METAR: KPCZ 180335Z AUTO 10011KT 1 1/4SM -SN OVC005 M02/M03 A3020 RMK AO2 P0001 T10201035

Tid: 21:56 (03:56 UTC)


TAF: fraværende

Vejrobservationer og prognoser fra mere end 4000 lufthavne (METAR og TAF).

De gule og røde prikker repræsenterer de meteorologiske stationer.

Flyt musen over at se navnet på stationen.

Så klik over at se vejr observationer og prognoser.

At skifte det kort: Klik på de grønne knapper med et sort kors for at zoome ind; på den grønne knap med en bindestreg for at zoome ud; eller på de grønne pile for tilstødende kort.


METAR-TAF: